createdAt,value
2023-03-03T00:01:59.538Z,100693.75
2023-03-03T00:04:26.639Z,100686.75
2023-03-03T00:06:53.732Z,100674.84
2023-03-03T00:09:20.874Z,100675.78
2023-03-03T00:11:54.681Z,100678.94
2023-03-03T00:14:32.203Z,100680.50
2023-03-03T00:17:07.360Z,100674.53
2023-03-03T00:19:40.041Z,100676.34
2023-03-03T00:22:16.386Z,100677.91
2023-03-03T00:24:43.505Z,100668.28
2023-03-03T00:27:36.248Z,100662.09
2023-03-03T00:30:04.316Z,100666.38
2023-03-03T00:32:53.222Z,100667.50
2023-03-03T00:35:26.467Z,100660.03
2023-03-03T00:38:00.496Z,100650.31
2023-03-03T00:40:39.944Z,100644.84
2023-03-03T00:43:21.777Z,100646.66
2023-03-03T00:45:54.160Z,100636.03
2023-03-03T00:48:42.715Z,100637.28
2023-03-03T00:51:35.811Z,100633.88
2023-03-03T00:54:03.231Z,100632.50
2023-03-03T00:56:30.727Z,100639.53
2023-03-03T00:58:57.797Z,100625.16
2023-03-03T01:01:25.734Z,100624.72
2023-03-03T01:03:53.278Z,100618.28
2023-03-03T01:06:20.759Z,100620.22
2023-03-03T01:08:47.816Z,100617.25
2023-03-03T01:11:24.005Z,100617.81
2023-03-03T01:13:52.328Z,100606.41
2023-03-03T01:16:19.947Z,100606.06
2023-03-03T01:18:47.466Z,100600.84
2023-03-03T01:21:14.514Z,100597.13
2023-03-03T01:23:41.754Z,100582.63
2023-03-03T01:26:08.979Z,100590.31
2023-03-03T01:28:36.196Z,100583.44
2023-03-03T01:31:05.420Z,100575.84
2023-03-03T01:33:34.808Z,100581.81
2023-03-03T01:36:03.592Z,100577.88
2023-03-03T01:38:31.121Z,100572.31
2023-03-03T01:41:00.119Z,100569.72
2023-03-03T01:43:31.170Z,100557.16
2023-03-03T01:45:58.124Z,100565.53
2023-03-03T01:48:34.612Z,100561.34
2023-03-03T01:51:04.215Z,100563.25
2023-03-03T01:53:53.351Z,100561.94
2023-03-03T01:56:20.924Z,100556.16
2023-03-03T01:59:05.955Z,100557.72
2023-03-03T02:01:34.275Z,100559.97
2023-03-03T02:04:01.737Z,100556.38
2023-03-03T02:06:35.418Z,100554.00
2023-03-03T02:09:52.014Z,100561.13
2023-03-03T02:12:23.402Z,100553.44
2023-03-03T02:14:50.396Z,100553.88
2023-03-03T02:17:17.855Z,100563.84
2023-03-03T02:20:26.627Z,100556.59
2023-03-03T02:23:08.466Z,100560.13
2023-03-03T02:25:54.092Z,100558.06
2023-03-03T02:28:21.452Z,100557.97
2023-03-03T02:30:48.565Z,100557.63
2023-03-03T02:33:15.862Z,100563.84
2023-03-03T02:35:43.024Z,100561.69
2023-03-03T02:38:36.042Z,100567.78
2023-03-03T02:41:56.211Z,100566.31
2023-03-03T02:44:27.366Z,100553.00
2023-03-03T02:46:56.174Z,100555.09
2023-03-03T02:49:28.267Z,100547.78
2023-03-03T02:51:55.880Z,100557.88
2023-03-03T02:54:26.600Z,100552.06
2023-03-03T02:56:53.672Z,100551.28
2023-03-03T02:59:20.932Z,100547.66
2023-03-03T03:01:48.802Z,100544.16
2023-03-03T03:04:25.388Z,100551.28
2023-03-03T03:06:53.677Z,100544.94
2023-03-03T03:09:22.425Z,100540.97
2023-03-03T03:11:49.994Z,100539.75
2023-03-03T03:14:17.272Z,100540.19
2023-03-03T03:16:44.422Z,100540.53
2023-03-03T03:19:11.579Z,100533.53
2023-03-03T03:21:38.920Z,100538.72
2023-03-03T03:24:06.570Z,100541.56
2023-03-03T03:26:33.703Z,100539.75
2023-03-03T03:29:00.928Z,100540.22
2023-03-03T03:31:28.214Z,100546.31
2023-03-03T03:33:55.293Z,100536.69
2023-03-03T03:36:22.602Z,100540.75
2023-03-03T03:38:49.783Z,100539.19
2023-03-03T03:41:16.897Z,100540.91
2023-03-03T03:43:44.165Z,100540.75
2023-03-03T03:46:11.384Z,100533.88
2023-03-03T03:48:38.596Z,100522.22
2023-03-03T03:51:05.963Z,100529.56
2023-03-03T03:53:33.065Z,100513.50
2023-03-03T03:56:00.220Z,100497.66
2023-03-03T03:58:27.294Z,100519.94
2023-03-03T04:00:54.816Z,100522.00
2023-03-03T04:03:22.116Z,100523.47
2023-03-03T04:05:52.286Z,100519.94
2023-03-03T04:08:19.345Z,100522.09
2023-03-03T04:10:46.401Z,100522.91
2023-03-03T04:13:13.462Z,100519.41
2023-03-03T04:15:40.573Z,100514.41
2023-03-03T04:18:07.776Z,100517.94
2023-03-03T04:20:34.928Z,100507.28
2023-03-03T04:23:02.058Z,100498.94
2023-03-03T04:25:29.108Z,100500.03
2023-03-03T04:27:56.223Z,100495.06
2023-03-03T04:30:23.287Z,100485.59
2023-03-03T04:32:50.768Z,100492.25
2023-03-03T04:35:17.952Z,100501.41
2023-03-03T04:37:45.098Z,100501.06
2023-03-03T04:40:12.702Z,100499.59
2023-03-03T04:42:39.747Z,100496.78
2023-03-03T04:45:07.707Z,100490.56
2023-03-03T04:47:35.014Z,100486.59
2023-03-03T04:50:02.175Z,100486.69
2023-03-03T04:52:29.593Z,100479.81
2023-03-03T04:54:56.669Z,100475.31
2023-03-03T04:57:23.721Z,100472.47
2023-03-03T04:59:51.569Z,100474.72
2023-03-03T05:02:18.793Z,100469.97
2023-03-03T05:04:45.991Z,100477.09
2023-03-03T05:07:13.249Z,100473.69
2023-03-03T05:09:40.374Z,100473.25
2023-03-03T05:12:07.831Z,100469.63
2023-03-03T05:14:34.889Z,100470.88
2023-03-03T05:17:04.574Z,100471.69
2023-03-03T05:19:32.838Z,100470.75
2023-03-03T05:22:00.414Z,100468.84
2023-03-03T05:24:27.832Z,100468.75
2023-03-03T05:26:55.448Z,100463.09
2023-03-03T05:29:22.670Z,100458.91
2023-03-03T05:31:49.991Z,100468.84
2023-03-03T05:34:17.117Z,100471.09
2023-03-03T05:36:44.246Z,100467.72
2023-03-03T05:39:11.267Z,100472.47
2023-03-03T05:41:38.878Z,100471.78
2023-03-03T05:44:06.459Z,100465.78
2023-03-03T05:46:33.748Z,100469.06
2023-03-03T05:49:01.116Z,100462.28
2023-03-03T05:51:28.249Z,100464.47
2023-03-03T05:53:56.581Z,100463.19
2023-03-03T05:56:23.767Z,100470.44
2023-03-03T05:58:50.966Z,100468.16
2023-03-03T06:01:18.601Z,100457.44
2023-03-03T06:03:45.688Z,100461.50
2023-03-03T06:06:14.236Z,100464.44
2023-03-03T06:08:41.428Z,100459.94
2023-03-03T06:11:08.521Z,100468.97
2023-03-03T06:13:35.583Z,100467.25
2023-03-03T06:16:02.971Z,100476.06
2023-03-03T06:18:30.115Z,100483.44
2023-03-03T06:20:57.191Z,100468.59
2023-03-03T06:23:24.268Z,100479.25
2023-03-03T06:25:51.478Z,100475.06
2023-03-03T06:28:18.632Z,100472.22
2023-03-03T06:30:45.892Z,100460.00
2023-03-03T06:33:13.126Z,100470.75
2023-03-03T06:35:40.534Z,100468.91
2023-03-03T06:38:07.603Z,100468.91
2023-03-03T06:40:34.820Z,100470.06
2023-03-03T06:43:03.328Z,100470.31
2023-03-03T06:45:30.684Z,100472.91
2023-03-03T06:47:57.989Z,100474.38
2023-03-03T06:50:25.087Z,100472.34
2023-03-03T06:53:14.461Z,100474.81
2023-03-03T06:55:44.739Z,100475.16
2023-03-03T06:58:17.686Z,100482.25
2023-03-03T07:00:55.433Z,100472.78
2023-03-03T07:03:27.472Z,100466.94
2023-03-03T07:05:54.699Z,100478.00
2023-03-03T07:08:24.802Z,100462.56
2023-03-03T07:10:54.233Z,100465.16
2023-03-03T07:13:28.547Z,100463.22
2023-03-03T07:15:59.443Z,100464.22
2023-03-03T07:18:48.190Z,100468.44
2023-03-03T07:21:20.745Z,100452.94
2023-03-03T07:23:51.589Z,100449.88
2023-03-03T07:26:39.686Z,100450.22
2023-03-03T07:29:30.714Z,100452.44
2023-03-03T07:32:01.914Z,100459.31
2023-03-03T07:34:40.883Z,100464.38
2023-03-03T07:37:18.641Z,100471.97
2023-03-03T07:39:47.026Z,100464.81
2023-03-03T07:42:39.955Z,100472.78
2023-03-03T07:45:31.236Z,100469.88
2023-03-03T07:48:13.382Z,100477.53
2023-03-03T07:50:41.660Z,100475.94
2023-03-03T07:53:34.940Z,100479.28
2023-03-03T07:56:03.504Z,100476.69
2023-03-03T07:58:40.961Z,100481.41
2023-03-03T08:01:46.471Z,100481.56
2023-03-03T08:04:41.135Z,100480.44
2023-03-03T08:07:21.917Z,100468.38
2023-03-03T08:09:56.771Z,100481.34
2023-03-03T08:12:40.275Z,100485.19
2023-03-03T08:15:28.121Z,100493.94
2023-03-03T08:17:57.072Z,100503.06
2023-03-03T08:20:43.771Z,100506.72
2023-03-03T08:23:12.091Z,100501.41
2023-03-03T08:25:39.516Z,100502.81
2023-03-03T08:28:06.637Z,100508.75
2023-03-03T08:30:33.781Z,100513.34
2023-03-03T08:33:01.534Z,100514.06
2023-03-03T08:35:29.041Z,100527.72
2023-03-03T08:37:56.194Z,100536.75
2023-03-03T08:40:23.257Z,100536.13
2023-03-03T08:42:50.423Z,100535.03
2023-03-03T08:45:17.855Z,100520.59
2023-03-03T08:47:44.981Z,100527.31
2023-03-03T08:50:14.421Z,100539.75
2023-03-03T08:52:41.565Z,100535.22
2023-03-03T08:55:09.040Z,100531.72
2023-03-03T08:57:36.631Z,100523.69
2023-03-03T09:00:04.211Z,100521.41
2023-03-03T09:02:31.275Z,100527.72
2023-03-03T09:04:58.328Z,100519.88
2023-03-03T09:07:25.489Z,100524.06
2023-03-03T09:09:52.704Z,100518.25
2023-03-03T09:12:32.690Z,100528.53
2023-03-03T09:15:15.051Z,100523.09
2023-03-03T09:17:43.842Z,100524.78
2023-03-03T09:20:42.588Z,100508.63
2023-03-03T09:23:36.116Z,100512.91
2023-03-03T09:26:26.998Z,100502.16
2023-03-03T09:29:15.189Z,100497.75
2023-03-03T09:31:47.991Z,100499.50
2023-03-03T09:34:31.476Z,100491.94
2023-03-03T09:37:00.157Z,100494.69
2023-03-03T09:39:30.694Z,100493.63
2023-03-03T09:42:35.510Z,100491.91
2023-03-03T09:45:27.846Z,100486.50
2023-03-03T09:51:21.262Z,100481.19
2023-03-03T09:54:29.429Z,100483.50
2023-03-03T09:57:25.068Z,100479.66
2023-03-03T10:00:21.510Z,100479.72
2023-03-03T10:03:11.562Z,100476.16
2023-03-03T10:06:02.379Z,100484.22
2023-03-03T10:08:46.219Z,100480.19
2023-03-03T10:11:22.141Z,100484.69
2023-03-03T10:14:23.228Z,100490.19
2023-03-03T10:17:39.054Z,100487.06
2023-03-03T10:20:51.202Z,100485.63
2023-03-03T10:23:42.062Z,100494.19
2023-03-03T10:26:43.950Z,100484.47
2023-03-03T10:29:45.104Z,100483.44
2023-03-03T10:32:33.214Z,100485.63
2023-03-03T10:41:49.343Z,100504.72
2023-03-03T10:44:45.511Z,100500.06
2023-03-03T10:47:46.469Z,100509.72
2023-03-03T10:50:48.638Z,100506.97
2023-03-03T10:53:31.919Z,100503.63
2023-03-03T10:56:11.581Z,100498.47
2023-03-03T10:59:04.510Z,100505.19
2023-03-03T11:01:59.158Z,100499.56
2023-03-03T11:05:06.604Z,100497.16
2023-03-03T11:08:02.350Z,100514.22
2023-03-03T11:10:48.350Z,100509.72
2023-03-03T11:14:12.588Z,100515.34
2023-03-03T11:17:24.853Z,100514.59
2023-03-03T11:37:46.354Z,100477.66
2023-03-03T11:40:24.713Z,100473.94
2023-03-03T11:50:08.500Z,100479.97
2023-03-03T11:53:09.340Z,100481.19
2023-03-03T11:55:39.554Z,100478.53
2023-03-03T11:58:39.662Z,100483.31
2023-03-03T12:01:35.145Z,100481.38
2023-03-03T12:04:30.953Z,100480.38
2023-03-03T12:07:25.392Z,100485.47
2023-03-03T12:10:09.350Z,100495.66
2023-03-03T12:12:56.670Z,100488.09
2023-03-03T12:15:45.459Z,100483.75
2023-03-03T12:18:44.275Z,100482.13
2023-03-03T12:21:42.228Z,100473.00
2023-03-03T12:24:34.230Z,100492.00
2023-03-03T12:27:43.273Z,100481.88
2023-03-03T12:30:10.721Z,100482.59
2023-03-03T12:32:58.024Z,100481.97
2023-03-03T12:35:50.516Z,100476.41
2023-03-03T12:38:50.051Z,100478.94
2023-03-03T12:41:47.614Z,100468.44
2023-03-03T12:44:28.263Z,100464.59
2023-03-03T12:47:01.955Z,100474.47
2023-03-03T12:50:07.496Z,100466.41
2023-03-03T12:52:52.763Z,100468.72
2023-03-03T12:55:53.672Z,100462.91
2023-03-03T12:58:37.952Z,100470.47
2023-03-03T13:01:53.981Z,100474.00
2023-03-03T13:04:31.932Z,100459.88
2023-03-03T13:07:56.450Z,100464.06
2023-03-03T13:11:01.863Z,100475.75
2023-03-03T13:13:46.049Z,100471.59
2023-03-03T13:16:26.359Z,100462.47
2023-03-03T13:19:03.011Z,100471.25
2023-03-03T13:22:10.866Z,100472.34
2023-03-03T13:25:08.898Z,100471.25
2023-03-03T13:27:45.408Z,100458.13
2023-03-03T13:30:23.023Z,100458.47
2023-03-03T13:33:17.085Z,100466.91
2023-03-03T13:36:09.262Z,100456.00
2023-03-03T13:38:57.640Z,100456.09
2023-03-03T13:41:46.947Z,100449.78
2023-03-03T13:44:31.925Z,100444.25
2023-03-03T13:47:28.810Z,100444.78
2023-03-03T13:50:05.664Z,100440.28
2023-03-03T13:52:45.620Z,100439.75
2023-03-03T13:55:25.338Z,100444.28
2023-03-03T13:58:46.085Z,100447.09
2023-03-03T14:01:34.222Z,100436.28
2023-03-03T14:21:29.594Z,100439.22
2023-03-03T14:24:07.729Z,100438.66
2023-03-03T14:26:57.744Z,100440.47
2023-03-03T14:29:27.877Z,100443.50
2023-03-03T14:32:01.771Z,100447.81
2023-03-03T14:34:41.931Z,100440.09
2023-03-03T14:37:47.406Z,100437.41
2023-03-03T14:40:23.137Z,100441.69
2023-03-03T14:42:52.793Z,100435.47
2023-03-03T14:45:41.916Z,100442.19
2023-03-03T14:48:26.300Z,100438.97
2023-03-03T14:51:24.124Z,100416.69
2023-03-03T14:53:51.969Z,100430.25
2023-03-03T14:56:34.101Z,100433.75
2023-03-03T14:59:23.662Z,100429.06
2023-03-03T15:02:18.550Z,100429.75
2023-03-03T15:04:48.734Z,100428.06
2023-03-03T15:07:40.093Z,100423.34
2023-03-03T15:10:08.230Z,100424.66
2023-03-03T15:12:38.217Z,100426.34
2023-03-03T15:15:11.344Z,100424.53
2023-03-03T15:17:42.418Z,100426.78
2023-03-03T15:20:40.215Z,100432.78
2023-03-03T15:33:37.035Z,100432.28
2023-03-03T15:36:32.063Z,100429.75
2023-03-03T15:39:04.502Z,100426.47
2023-03-03T15:41:43.572Z,100426.97
2023-03-03T15:44:40.572Z,100421.13
2023-03-03T15:47:51.843Z,100421.25
2023-03-03T15:50:41.966Z,100419.34
2023-03-03T15:53:27.291Z,100413.41
2023-03-03T15:56:28.667Z,100410.91
2023-03-03T15:59:19.605Z,100416.22
2023-03-03T16:02:15.550Z,100419.16
2023-03-03T16:05:00.439Z,100418.94
2023-03-03T16:07:58.167Z,100420.94
2023-03-03T16:10:35.886Z,100421.94
2023-03-03T16:13:04.604Z,100420.03
2023-03-03T16:15:57.698Z,100421.25
2023-03-03T16:41:55.985Z,100409.00
2023-03-03T16:44:34.843Z,100406.69
2023-03-03T16:47:32.929Z,100401.09
2023-03-03T16:50:22.320Z,100395.97
2023-03-03T16:53:06.615Z,100393.44
2023-03-03T16:56:17.589Z,100393.53
2023-03-03T16:59:11.508Z,100403.34
2023-03-03T17:01:57.758Z,100396.94
2023-03-03T17:04:42.582Z,100399.56
2023-03-03T17:08:03.365Z,100406.72
2023-03-03T17:10:50.999Z,100396.28
2023-03-03T17:13:48.760Z,100401.97
2023-03-03T17:16:49.783Z,100407.59
2023-03-03T17:19:46.346Z,100404.56
2023-03-03T17:22:46.447Z,100398.25
2023-03-03T17:25:27.137Z,100399.47
2023-03-03T17:28:14.947Z,100410.59
2023-03-03T17:31:05.119Z,100401.47
2023-03-03T17:33:53.713Z,100412.41
2023-03-03T17:36:46.928Z,100398.34
2023-03-03T17:39:22.381Z,100398.63
2023-03-03T17:42:07.365Z,100405.47
2023-03-03T17:45:09.167Z,100394.44
2023-03-03T17:51:06.402Z,100386.91
2023-03-03T17:57:37.984Z,100380.72
2023-03-03T18:00:45.691Z,100387.03
2023-03-03T18:04:10.950Z,100386.47
2023-03-03T18:06:56.756Z,100382.06
2023-03-03T18:10:04.887Z,100383.25
2023-03-03T18:13:00.694Z,100389.47
2023-03-03T18:15:45.654Z,100381.84
2023-03-03T18:19:12.680Z,100378.25
2023-03-03T18:21:54.796Z,100381.19
2023-03-03T18:25:15.075Z,100384.59
2023-03-03T18:28:08.575Z,100376.38
2023-03-03T18:31:05.033Z,100369.06
2023-03-03T18:33:34.801Z,100369.56
2023-03-03T18:36:28.024Z,100376.38
2023-03-03T18:38:57.415Z,100379.19
2023-03-03T18:41:34.777Z,100363.13
2023-03-03T18:44:23.127Z,100361.03
2023-03-03T18:46:52.501Z,100356.63
2023-03-03T18:50:10.197Z,100358.25
2023-03-03T18:52:37.387Z,100345.00
2023-03-03T18:55:26.780Z,100345.00
2023-03-03T18:58:15.234Z,100344.22
2023-03-03T19:01:10.801Z,100341.50
2023-03-03T19:04:02.513Z,100341.69
2023-03-03T19:07:02.715Z,100345.81
2023-03-03T19:09:52.611Z,100346.41
2023-03-03T19:12:40.769Z,100344.50
2023-03-03T19:15:35.482Z,100337.81
2023-03-03T19:18:28.131Z,100331.28
2023-03-03T19:21:19.041Z,100326.69
2023-03-03T19:24:00.675Z,100319.75
2023-03-03T19:26:29.055Z,100325.56
2023-03-03T19:29:18.054Z,100339.81
2023-03-03T19:32:03.961Z,100340.44
2023-03-03T19:34:58.915Z,100339.19
2023-03-03T19:37:54.255Z,100346.03
2023-03-03T19:41:09.771Z,100337.28
2023-03-03T19:43:51.835Z,100324.88
2023-03-03T19:46:51.890Z,100328.97
2023-03-03T19:50:05.365Z,100307.50
2023-03-03T19:52:59.669Z,100316.97
2023-03-03T19:55:57.237Z,100302.09
2023-03-03T19:59:34.914Z,100311.84
2023-03-03T20:02:13.895Z,100295.09
2023-03-03T20:05:10.420Z,100293.69
2023-03-03T20:08:00.561Z,100290.06
2023-03-03T20:10:50.672Z,100297.59
2023-03-03T20:13:50.724Z,100301.94
2023-03-03T20:16:29.926Z,100297.19
2023-03-03T20:19:41.608Z,100277.88
2023-03-03T20:22:52.184Z,100286.59
2023-03-03T20:25:51.375Z,100265.81
2023-03-03T20:28:56.794Z,100258.50
2023-03-03T20:31:43.038Z,100261.81
2023-03-03T20:34:32.591Z,100258.28
2023-03-03T20:37:08.201Z,100249.22
2023-03-03T20:39:57.863Z,100258.41
2023-03-03T20:43:02.048Z,100248.50
2023-03-03T20:45:54.097Z,100242.94
2023-03-03T20:52:06.986Z,100255.00
2023-03-03T20:55:00.404Z,100252.31
2023-03-03T20:57:50.825Z,100244.66
2023-03-03T21:06:23.279Z,100227.13
2023-03-03T21:08:58.184Z,100225.63
2023-03-03T21:45:15.092Z,100171.41
2023-03-03T21:53:31.329Z,100157.34
2023-03-03T21:55:58.549Z,100147.75
2023-03-03T22:04:15.406Z,100143.31
2023-03-03T22:06:43.136Z,100144.91
2023-03-03T22:15:02.465Z,100129.13
2023-03-03T22:17:30.182Z,100129.75
2023-03-03T22:49:42.246Z,100065.91
2023-03-03T22:52:10.891Z,100061.50
2023-03-03T22:55:11.796Z,100059.41
2023-03-03T22:58:12.050Z,100057.25
2023-03-03T23:00:41.747Z,100056.72
2023-03-03T23:09:01.382Z,100054.31
2023-03-03T23:11:28.631Z,100054.69
2023-03-03T23:19:46.584Z,100030.31
2023-03-03T23:22:14.222Z,100030.50
2023-03-03T23:33:26.654Z,100019.81
2023-03-03T23:35:53.859Z,100018.56
2023-03-03T23:38:21.021Z,100016.38
2023-03-03T23:40:48.383Z,100018.09
2023-03-03T23:43:15.700Z,100001.03
2023-03-03T23:45:44.322Z,100004.97
2023-03-03T23:48:11.494Z,100002.19
2023-03-03T23:50:39.308Z,99977.53
2023-03-03T23:53:07.988Z,99978.91
2023-03-03T23:55:36.358Z,99990.59
2023-03-03T23:58:04.422Z,99982.88
